sensor_id;sensor_type;location;lat;lon;timestamp;P1;durP1;ratioP1;P2;durP2;ratioP2
36971;SDS011;40554;52.122;20.678;2022-12-18T00:01:39;61.10;;;25.95;;
36971;SDS011;40554;52.122;20.678;2022-12-18T00:03:55;56.75;;;24.92;;
36971;SDS011;40554;52.122;20.678;2022-12-18T00:06:11;52.17;;;23.67;;
36971;SDS011;40554;52.122;20.678;2022-12-18T00:08:29;53.33;;;23.95;;
36971;SDS011;40554;52.122;20.678;2022-12-18T00:10:45;55.28;;;24.25;;
36971;SDS011;40554;52.122;20.678;2022-12-18T00:13:02;49.27;;;22.50;;
36971;SDS011;40554;52.122;20.678;2022-12-18T00:15:18;52.23;;;23.85;;
36971;SDS011;40554;52.122;20.678;2022-12-18T00:17:35;55.05;;;22.13;;
36971;SDS011;40554;52.122;20.678;2022-12-18T00:19:51;52.03;;;21.82;;
36971;SDS011;40554;52.122;20.678;2022-12-18T00:22:07;52.23;;;23.10;;
36971;SDS011;40554;52.122;20.678;2022-12-18T00:24:24;49.08;;;21.97;;
36971;SDS011;40554;52.122;20.678;2022-12-18T00:26:40;53.95;;;21.93;;
36971;SDS011;40554;52.122;20.678;2022-12-18T00:29:00;55.43;;;22.10;;
36971;SDS011;40554;52.122;20.678;2022-12-18T00:31:20;49.40;;;22.52;;
36971;SDS011;40554;52.122;20.678;2022-12-18T00:33:39;52.78;;;21.62;;
36971;SDS011;40554;52.122;20.678;2022-12-18T00:36:00;52.40;;;22.62;;
36971;SDS011;40554;52.122;20.678;2022-12-18T00:38:22;47.55;;;21.40;;
36971;SDS011;40554;52.122;20.678;2022-12-18T00:40:38;48.98;;;20.62;;
36971;SDS011;40554;52.122;20.678;2022-12-18T00:42:54;50.28;;;20.00;;
36971;SDS011;40554;52.122;20.678;2022-12-18T00:45:11;50.20;;;21.60;;
36971;SDS011;40554;52.122;20.678;2022-12-18T00:47:27;49.53;;;21.52;;
36971;SDS011;40554;52.122;20.678;2022-12-18T00:49:44;53.00;;;22.37;;
36971;SDS011;40554;52.122;20.678;2022-12-18T00:52:00;61.88;;;24.60;;
36971;SDS011;40554;52.122;20.678;2022-12-18T00:54:16;58.42;;;23.25;;
36971;SDS011;40554;52.122;20.678;2022-12-18T00:56:35;55.30;;;21.95;;
36971;SDS011;40554;52.122;20.678;2022-12-18T00:58:53;49.90;;;22.58;;
36971;SDS011;40554;52.122;20.678;2022-12-18T01:01:09;51.95;;;22.85;;
36971;SDS011;40554;52.122;20.678;2022-12-18T01:03:25;57.62;;;24.30;;
36971;SDS011;40554;52.122;20.678;2022-12-18T01:05:42;62.78;;;26.93;;
36971;SDS011;40554;52.122;20.678;2022-12-18T01:07:58;73.37;;;32.70;;
36971;SDS011;40554;52.122;20.678;2022-12-18T01:10:15;76.72;;;33.30;;
36971;SDS011;40554;52.122;20.678;2022-12-18T01:12:31;68.83;;;29.27;;
36971;SDS011;40554;52.122;20.678;2022-12-18T01:14:48;62.60;;;29.90;;
36971;SDS011;40554;52.122;20.678;2022-12-18T01:17:04;64.95;;;31.52;;
36971;SDS011;40554;52.122;20.678;2022-12-18T01:19:20;63.30;;;28.50;;
36971;SDS011;40554;52.122;20.678;2022-12-18T01:21:36;69.03;;;28.45;;
36971;SDS011;40554;52.122;20.678;2022-12-18T01:23:53;69.87;;;29.70;;
36971;SDS011;40554;52.122;20.678;2022-12-18T01:26:12;78.75;;;31.95;;
36971;SDS011;40554;52.122;20.678;2022-12-18T01:28:31;67.35;;;31.60;;
36971;SDS011;40554;52.122;20.678;2022-12-18T01:30:47;73.40;;;30.32;;
36971;SDS011;40554;52.122;20.678;2022-12-18T01:33:04;69.60;;;30.45;;
36971;SDS011;40554;52.122;20.678;2022-12-18T01:35:20;78.83;;;32.98;;
36971;SDS011;40554;52.122;20.678;2022-12-18T01:37:37;73.92;;;32.13;;
36971;SDS011;40554;52.122;20.678;2022-12-18T01:39:53;63.58;;;27.45;;
36971;SDS011;40554;52.122;20.678;2022-12-18T01:42:11;66.42;;;28.27;;
36971;SDS011;40554;52.122;20.678;2022-12-18T01:47:23;64.07;;;25.75;;
36971;SDS011;40554;52.122;20.678;2022-12-18T01:49:52;59.93;;;26.45;;
36971;SDS011;40554;52.122;20.678;2022-12-18T01:52:10;65.08;;;25.30;;
36971;SDS011;40554;52.122;20.678;2022-12-18T01:54:27;66.25;;;23.07;;
36971;SDS011;40554;52.122;20.678;2022-12-18T01:56:44;57.83;;;24.18;;
36971;SDS011;40554;52.122;20.678;2022-12-18T01:59:02;55.60;;;23.87;;
36971;SDS011;40554;52.122;20.678;2022-12-18T02:01:22;56.25;;;23.32;;
36971;SDS011;40554;52.122;20.678;2022-12-18T02:03:43;59.88;;;22.87;;
36971;SDS011;40554;52.122;20.678;2022-12-18T02:14:16;59.05;;;23.80;;
36971;SDS011;40554;52.122;20.678;2022-12-18T02:16:43;57.65;;;20.00;;
36971;SDS011;40554;52.122;20.678;2022-12-18T02:22:03;51.00;;;20.08;;
36971;SDS011;40554;52.122;20.678;2022-12-18T02:27:02;50.45;;;21.05;;
36971;SDS011;40554;52.122;20.678;2022-12-18T02:29:24;56.33;;;21.33;;
36971;SDS011;40554;52.122;20.678;2022-12-18T02:31:47;60.33;;;21.93;;
36971;SDS011;40554;52.122;20.678;2022-12-18T02:34:08;47.93;;;21.68;;
36971;SDS011;40554;52.122;20.678;2022-12-18T02:36:27;63.60;;;20.80;;
36971;SDS011;40554;52.122;20.678;2022-12-18T02:38:45;53.90;;;21.27;;
36971;SDS011;40554;52.122;20.678;2022-12-18T02:41:02;50.35;;;21.65;;
36971;SDS011;40554;52.122;20.678;2022-12-18T02:43:20;54.45;;;21.35;;
36971;SDS011;40554;52.122;20.678;2022-12-18T02:45:45;47.65;;;20.35;;
36971;SDS011;40554;52.122;20.678;2022-12-18T02:48:09;59.10;;;21.75;;
36971;SDS011;40554;52.122;20.678;2022-12-18T02:50:28;58.85;;;23.52;;
36971;SDS011;40554;52.122;20.678;2022-12-18T02:53:15;67.82;;;26.25;;
36971;SDS011;40554;52.122;20.678;2022-12-18T02:55:50;69.77;;;25.53;;
36971;SDS011;40554;52.122;20.678;2022-12-18T03:03:56;61.58;;;21.73;;
36971;SDS011;40554;52.122;20.678;2022-12-18T03:06:24;59.53;;;22.20;;
36971;SDS011;40554;52.122;20.678;2022-12-18T03:08:48;57.48;;;23.10;;
36971;SDS011;40554;52.122;20.678;2022-12-18T03:11:10;55.83;;;21.85;;
36971;SDS011;40554;52.122;20.678;2022-12-18T03:13:37;60.35;;;21.37;;
36971;SDS011;40554;52.122;20.678;2022-12-18T03:15:57;54.88;;;21.12;;
36971;SDS011;40554;52.122;20.678;2022-12-18T03:18:20;53.68;;;22.45;;
36971;SDS011;40554;52.122;20.678;2022-12-18T03:20:44;56.68;;;21.55;;
36971;SDS011;40554;52.122;20.678;2022-12-18T03:23:07;57.03;;;23.00;;
36971;SDS011;40554;52.122;20.678;2022-12-18T03:25:28;57.85;;;22.95;;
36971;SDS011;40554;52.122;20.678;2022-12-18T03:27:48;56.37;;;23.00;;
36971;SDS011;40554;52.122;20.678;2022-12-18T03:30:08;58.40;;;22.90;;
36971;SDS011;40554;52.122;20.678;2022-12-18T03:32:29;57.98;;;21.37;;
36971;SDS011;40554;52.122;20.678;2022-12-18T03:34:49;51.20;;;23.02;;
36971;SDS011;40554;52.122;20.678;2022-12-18T03:37:07;49.38;;;20.32;;
36971;SDS011;40554;52.122;20.678;2022-12-18T03:39:24;57.30;;;21.75;;
36971;SDS011;40554;52.122;20.678;2022-12-18T03:41:47;56.23;;;21.60;;
36971;SDS011;40554;52.122;20.678;2022-12-18T03:44:13;56.05;;;20.52;;
36971;SDS011;40554;52.122;20.678;2022-12-18T03:49:30;54.67;;;20.30;;
36971;SDS011;40554;52.122;20.678;2022-12-18T03:52:06;67.03;;;23.00;;
36971;SDS011;40554;52.122;20.678;2022-12-18T03:54:32;59.30;;;22.85;;
36971;SDS011;40554;52.122;20.678;2022-12-18T03:56:54;57.83;;;23.90;;
36971;SDS011;40554;52.122;20.678;2022-12-18T03:59:15;56.83;;;22.32;;
36971;SDS011;40554;52.122;20.678;2022-12-18T04:01:38;57.90;;;21.50;;
36971;SDS011;40554;52.122;20.678;2022-12-18T04:03:59;60.55;;;21.35;;
36971;SDS011;40554;52.122;20.678;2022-12-18T04:06:17;56.08;;;21.02;;
36971;SDS011;40554;52.122;20.678;2022-12-18T04:08:34;62.55;;;23.18;;
36971;SDS011;40554;52.122;20.678;2022-12-18T04:10:51;49.15;;;20.20;;
36971;SDS011;40554;52.122;20.678;2022-12-18T04:13:08;57.48;;;21.68;;
36971;SDS011;40554;52.122;20.678;2022-12-18T04:15:25;57.78;;;21.37;;
36971;SDS011;40554;52.122;20.678;2022-12-18T04:17:43;56.25;;;20.05;;
36971;SDS011;40554;52.122;20.678;2022-12-18T04:20:03;57.10;;;21.55;;
36971;SDS011;40554;52.122;20.678;2022-12-18T04:22:21;54.55;;;22.20;;
36971;SDS011;40554;52.122;20.678;2022-12-18T04:24:37;59.70;;;22.32;;
36971;SDS011;40554;52.122;20.678;2022-12-18T04:26:54;52.67;;;20.62;;
36971;SDS011;40554;52.122;20.678;2022-12-18T04:29:10;55.33;;;20.27;;
36971;SDS011;40554;52.122;20.678;2022-12-18T04:31:26;54.27;;;22.48;;
36971;SDS011;40554;52.122;20.678;2022-12-18T04:33:43;59.35;;;21.82;;
36971;SDS011;40554;52.122;20.678;2022-12-18T04:35:59;51.30;;;20.23;;
36971;SDS011;40554;52.122;20.678;2022-12-18T04:38:15;53.98;;;20.90;;
36971;SDS011;40554;52.122;20.678;2022-12-18T04:40:32;55.63;;;21.73;;
36971;SDS011;40554;52.122;20.678;2022-12-18T04:42:48;50.83;;;19.75;;
36971;SDS011;40554;52.122;20.678;2022-12-18T04:45:05;52.40;;;21.97;;
36971;SDS011;40554;52.122;20.678;2022-12-18T04:47:23;58.28;;;22.30;;
36971;SDS011;40554;52.122;20.678;2022-12-18T04:49:39;60.88;;;22.17;;
36971;SDS011;40554;52.122;20.678;2022-12-18T04:51:56;54.03;;;22.05;;
36971;SDS011;40554;52.122;20.678;2022-12-18T04:54:12;53.58;;;19.10;;
36971;SDS011;40554;52.122;20.678;2022-12-18T04:56:30;50.80;;;21.27;;
36971;SDS011;40554;52.122;20.678;2022-12-18T04:58:47;51.68;;;20.77;;
36971;SDS011;40554;52.122;20.678;2022-12-18T05:01:03;53.58;;;21.02;;
36971;SDS011;40554;52.122;20.678;2022-12-18T05:03:20;51.18;;;20.45;;
36971;SDS011;40554;52.122;20.678;2022-12-18T05:05:36;54.23;;;21.12;;
36971;SDS011;40554;52.122;20.678;2022-12-18T05:07:53;51.90;;;19.85;;
36971;SDS011;40554;52.122;20.678;2022-12-18T05:10:09;52.67;;;22.98;;
36971;SDS011;40554;52.122;20.678;2022-12-18T05:12:25;57.03;;;23.07;;
36971;SDS011;40554;52.122;20.678;2022-12-18T05:14:42;55.48;;;20.50;;
36971;SDS011;40554;52.122;20.678;2022-12-18T05:16:58;48.80;;;20.48;;
36971;SDS011;40554;52.122;20.678;2022-12-18T05:19:14;53.25;;;20.80;;
36971;SDS011;40554;52.122;20.678;2022-12-18T05:21:30;56.50;;;21.33;;
36971;SDS011;40554;52.122;20.678;2022-12-18T05:23:47;47.78;;;19.17;;
36971;SDS011;40554;52.122;20.678;2022-12-18T05:26:04;53.40;;;21.65;;
36971;SDS011;40554;52.122;20.678;2022-12-18T05:28:23;49.95;;;20.52;;
36971;SDS011;40554;52.122;20.678;2022-12-18T05:30:41;53.78;;;21.07;;
36971;SDS011;40554;52.122;20.678;2022-12-18T05:32:58;59.48;;;23.45;;
36971;SDS011;40554;52.122;20.678;2022-12-18T05:35:14;59.18;;;22.37;;
36971;SDS011;40554;52.122;20.678;2022-12-18T05:37:30;56.25;;;22.13;;
36971;SDS011;40554;52.122;20.678;2022-12-18T05:39:46;57.20;;;21.60;;
36971;SDS011;40554;52.122;20.678;2022-12-18T05:42:03;57.00;;;21.20;;
36971;SDS011;40554;52.122;20.678;2022-12-18T05:44:19;48.98;;;19.65;;
36971;SDS011;40554;52.122;20.678;2022-12-18T05:46:35;51.83;;;20.72;;
36971;SDS011;40554;52.122;20.678;2022-12-18T05:48:52;54.75;;;22.65;;
36971;SDS011;40554;52.122;20.678;2022-12-18T05:51:09;57.43;;;23.22;;
36971;SDS011;40554;52.122;20.678;2022-12-18T05:53:31;56.88;;;23.07;;
36971;SDS011;40554;52.122;20.678;2022-12-18T05:55:48;66.37;;;24.85;;
36971;SDS011;40554;52.122;20.678;2022-12-18T05:58:04;69.85;;;26.70;;
36971;SDS011;40554;52.122;20.678;2022-12-18T06:00:22;65.08;;;26.20;;
36971;SDS011;40554;52.122;20.678;2022-12-18T06:02:39;69.15;;;26.42;;
36971;SDS011;40554;52.122;20.678;2022-12-18T06:04:55;73.67;;;30.05;;
36971;SDS011;40554;52.122;20.678;2022-12-18T06:07:11;73.10;;;29.95;;
36971;SDS011;40554;52.122;20.678;2022-12-18T06:09:28;81.75;;;30.17;;
36971;SDS011;40554;52.122;20.678;2022-12-18T06:11:45;72.08;;;30.50;;
36971;SDS011;40554;52.122;20.678;2022-12-18T06:14:01;85.28;;;31.05;;
36971;SDS011;40554;52.122;20.678;2022-12-18T06:16:19;75.17;;;27.67;;
36971;SDS011;40554;52.122;20.678;2022-12-18T06:18:35;76.40;;;30.02;;
36971;SDS011;40554;52.122;20.678;2022-12-18T06:20:55;82.22;;;31.52;;
36971;SDS011;40554;52.122;20.678;2022-12-18T06:23:12;77.80;;;32.75;;
36971;SDS011;40554;52.122;20.678;2022-12-18T06:25:29;88.92;;;33.60;;
36971;SDS011;40554;52.122;20.678;2022-12-18T06:27:47;85.12;;;34.10;;
36971;SDS011;40554;52.122;20.678;2022-12-18T06:30:03;80.45;;;34.08;;
36971;SDS011;40554;52.122;20.678;2022-12-18T06:32:21;89.35;;;34.35;;
36971;SDS011;40554;52.122;20.678;2022-12-18T06:34:38;83.62;;;33.73;;
36971;SDS011;40554;52.122;20.678;2022-12-18T06:36:54;90.87;;;34.45;;
36971;SDS011;40554;52.122;20.678;2022-12-18T06:39:11;90.62;;;35.90;;
36971;SDS011;40554;52.122;20.678;2022-12-18T06:41:27;91.22;;;35.55;;
36971;SDS011;40554;52.122;20.678;2022-12-18T06:43:43;89.37;;;38.23;;
36971;SDS011;40554;52.122;20.678;2022-12-18T06:46:00;91.70;;;37.33;;
36971;SDS011;40554;52.122;20.678;2022-12-18T06:48:20;82.78;;;34.83;;
36971;SDS011;40554;52.122;20.678;2022-12-18T06:50:37;100.55;;;39.90;;
36971;SDS011;40554;52.122;20.678;2022-12-18T06:52:57;91.97;;;36.63;;
36971;SDS011;40554;52.122;20.678;2022-12-18T06:55:13;93.67;;;37.28;;
36971;SDS011;40554;52.122;20.678;2022-12-18T06:57:29;89.45;;;36.83;;
36971;SDS011;40554;52.122;20.678;2022-12-18T06:59:45;94.37;;;37.25;;
36971;SDS011;40554;52.122;20.678;2022-12-18T07:02:02;87.00;;;36.58;;
36971;SDS011;40554;52.122;20.678;2022-12-18T07:04:18;89.25;;;37.83;;
36971;SDS011;40554;52.122;20.678;2022-12-18T07:06:34;93.37;;;36.00;;
36971;SDS011;40554;52.122;20.678;2022-12-18T07:08:51;99.25;;;38.15;;
36971;SDS011;40554;52.122;20.678;2022-12-18T07:11:09;85.53;;;36.42;;
36971;SDS011;40554;52.122;20.678;2022-12-18T07:13:25;82.15;;;34.25;;
36971;SDS011;40554;52.122;20.678;2022-12-18T07:15:42;86.17;;;33.45;;
36971;SDS011;40554;52.122;20.678;2022-12-18T07:17:59;89.95;;;36.15;;
36971;SDS011;40554;52.122;20.678;2022-12-18T07:20:15;85.35;;;36.93;;
36971;SDS011;40554;52.122;20.678;2022-12-18T07:22:31;76.35;;;32.00;;
36971;SDS011;40554;52.122;20.678;2022-12-18T07:24:48;87.60;;;34.98;;
36971;SDS011;40554;52.122;20.678;2022-12-18T07:27:04;78.57;;;32.63;;
36971;SDS011;40554;52.122;20.678;2022-12-18T07:29:20;77.78;;;31.95;;
36971;SDS011;40554;52.122;20.678;2022-12-18T07:31:36;80.20;;;34.58;;
36971;SDS011;40554;52.122;20.678;2022-12-18T07:33:53;81.32;;;35.50;;
36971;SDS011;40554;52.122;20.678;2022-12-18T07:36:09;79.97;;;35.03;;
36971;SDS011;40554;52.122;20.678;2022-12-18T07:38:26;77.42;;;31.65;;
36971;SDS011;40554;52.122;20.678;2022-12-18T07:40:43;69.03;;;30.72;;
36971;SDS011;40554;52.122;20.678;2022-12-18T07:42:59;76.90;;;30.45;;
36971;SDS011;40554;52.122;20.678;2022-12-18T07:45:15;67.78;;;29.75;;
36971;SDS011;40554;52.122;20.678;2022-12-18T07:47:33;72.58;;;31.37;;
36971;SDS011;40554;52.122;20.678;2022-12-18T07:49:53;75.00;;;30.87;;
36971;SDS011;40554;52.122;20.678;2022-12-18T07:52:10;83.25;;;31.65;;
36971;SDS011;40554;52.122;20.678;2022-12-18T07:54:27;80.00;;;30.72;;
36971;SDS011;40554;52.122;20.678;2022-12-18T07:56:43;82.00;;;32.50;;
36971;SDS011;40554;52.122;20.678;2022-12-18T07:59:00;82.88;;;34.58;;
36971;SDS011;40554;52.122;20.678;2022-12-18T08:01:16;77.67;;;34.67;;
36971;SDS011;40554;52.122;20.678;2022-12-18T08:03:33;81.65;;;32.58;;
36971;SDS011;40554;52.122;20.678;2022-12-18T08:05:50;78.02;;;32.28;;
36971;SDS011;40554;52.122;20.678;2022-12-18T08:08:09;73.83;;;32.95;;
36971;SDS011;40554;52.122;20.678;2022-12-18T08:10:26;87.42;;;34.10;;
36971;SDS011;40554;52.122;20.678;2022-12-18T08:12:42;86.87;;;34.13;;
36971;SDS011;40554;52.122;20.678;2022-12-18T08:14:58;84.75;;;32.08;;
36971;SDS011;40554;52.122;20.678;2022-12-18T08:17:15;81.25;;;32.75;;
36971;SDS011;40554;52.122;20.678;2022-12-18T08:19:33;85.50;;;32.63;;
36971;SDS011;40554;52.122;20.678;2022-12-18T08:21:49;90.15;;;33.92;;
36971;SDS011;40554;52.122;20.678;2022-12-18T08:24:05;80.72;;;33.85;;
36971;SDS011;40554;52.122;20.678;2022-12-18T08:26:25;82.45;;;36.17;;
36971;SDS011;40554;52.122;20.678;2022-12-18T08:28:44;90.72;;;34.67;;
36971;SDS011;40554;52.122;20.678;2022-12-18T08:31:01;87.62;;;31.15;;
36971;SDS011;40554;52.122;20.678;2022-12-18T08:33:18;78.92;;;32.45;;
36971;SDS011;40554;52.122;20.678;2022-12-18T08:35:35;82.67;;;32.15;;
36971;SDS011;40554;52.122;20.678;2022-12-18T08:37:52;83.12;;;32.85;;
36971;SDS011;40554;52.122;20.678;2022-12-18T08:40:09;83.67;;;31.65;;
36971;SDS011;40554;52.122;20.678;2022-12-18T08:42:26;83.05;;;30.60;;
36971;SDS011;40554;52.122;20.678;2022-12-18T08:45:01;80.62;;;32.08;;
36971;SDS011;40554;52.122;20.678;2022-12-18T08:47:19;76.37;;;30.80;;
36971;SDS011;40554;52.122;20.678;2022-12-18T08:49:35;84.45;;;31.00;;
36971;SDS011;40554;52.122;20.678;2022-12-18T08:51:54;75.95;;;31.90;;
36971;SDS011;40554;52.122;20.678;2022-12-18T08:54:12;76.95;;;32.55;;
36971;SDS011;40554;52.122;20.678;2022-12-18T08:56:30;88.37;;;34.80;;
36971;SDS011;40554;52.122;20.678;2022-12-18T08:58:46;77.10;;;30.80;;
36971;SDS011;40554;52.122;20.678;2022-12-18T09:01:06;81.47;;;32.70;;
36971;SDS011;40554;52.122;20.678;2022-12-18T09:03:25;84.83;;;30.48;;
36971;SDS011;40554;52.122;20.678;2022-12-18T09:05:42;96.53;;;34.33;;
36971;SDS011;40554;52.122;20.678;2022-12-18T09:08:01;81.47;;;31.25;;
36971;SDS011;40554;52.122;20.678;2022-12-18T09:10:17;84.75;;;32.23;;
36971;SDS011;40554;52.122;20.678;2022-12-18T09:12:33;82.30;;;33.50;;
36971;SDS011;40554;52.122;20.678;2022-12-18T09:14:51;83.20;;;34.45;;
36971;SDS011;40554;52.122;20.678;2022-12-18T09:17:09;84.87;;;33.88;;
36971;SDS011;40554;52.122;20.678;2022-12-18T09:19:26;86.20;;;33.75;;
36971;SDS011;40554;52.122;20.678;2022-12-18T09:21:44;85.22;;;34.20;;
36971;SDS011;40554;52.122;20.678;2022-12-18T09:24:01;85.80;;;31.73;;
36971;SDS011;40554;52.122;20.678;2022-12-18T09:26:17;79.75;;;33.18;;
36971;SDS011;40554;52.122;20.678;2022-12-18T09:28:34;82.10;;;34.58;;
36971;SDS011;40554;52.122;20.678;2022-12-18T09:30:50;89.20;;;34.63;;
36971;SDS011;40554;52.122;20.678;2022-12-18T09:33:06;85.00;;;32.90;;
36971;SDS011;40554;52.122;20.678;2022-12-18T09:35:24;81.02;;;30.85;;
36971;SDS011;40554;52.122;20.678;2022-12-18T09:37:40;76.02;;;29.20;;
36971;SDS011;40554;52.122;20.678;2022-12-18T09:39:57;82.60;;;31.52;;
36971;SDS011;40554;52.122;20.678;2022-12-18T09:42:21;75.90;;;30.45;;
36971;SDS011;40554;52.122;20.678;2022-12-18T09:44:41;80.15;;;29.63;;
36971;SDS011;40554;52.122;20.678;2022-12-18T09:47:35;74.72;;;30.50;;
36971;SDS011;40554;52.122;20.678;2022-12-18T09:49:32;74.03;;;29.80;;
36971;SDS011;40554;52.122;20.678;2022-12-18T09:54:25;84.55;;;31.87;;
36971;SDS011;40554;52.122;20.678;2022-12-18T09:56:48;77.12;;;31.77;;
36971;SDS011;40554;52.122;20.678;2022-12-18T09:59:04;73.40;;;30.48;;
36971;SDS011;40554;52.122;20.678;2022-12-18T10:01:21;79.35;;;32.08;;
36971;SDS011;40554;52.122;20.678;2022-12-18T10:03:39;78.87;;;31.07;;
36971;SDS011;40554;52.122;20.678;2022-12-18T10:06:10;80.57;;;33.33;;
36971;SDS011;40554;52.122;20.678;2022-12-18T10:11:22;70.20;;;28.23;;
36971;SDS011;40554;52.122;20.678;2022-12-18T10:14:33;76.72;;;29.30;;
36971;SDS011;40554;52.122;20.678;2022-12-18T10:19:54;75.60;;;30.30;;
36971;SDS011;40554;52.122;20.678;2022-12-18T10:24:55;81.32;;;31.42;;
36971;SDS011;40554;52.122;20.678;2022-12-18T10:27:34;71.37;;;28.83;;
36971;SDS011;40554;52.122;20.678;2022-12-18T10:29:54;65.32;;;26.05;;
36971;SDS011;40554;52.122;20.678;2022-12-18T10:32:19;65.62;;;27.35;;
36971;SDS011;40554;52.122;20.678;2022-12-18T10:34:38;64.62;;;26.25;;
36971;SDS011;40554;52.122;20.678;2022-12-18T10:36:54;67.42;;;28.07;;
36971;SDS011;40554;52.122;20.678;2022-12-18T10:39:22;68.05;;;27.02;;
36971;SDS011;40554;52.122;20.678;2022-12-18T10:41:41;69.03;;;28.45;;
36971;SDS011;40554;52.122;20.678;2022-12-18T10:44:11;70.95;;;30.90;;
36971;SDS011;40554;52.122;20.678;2022-12-18T10:46:37;73.12;;;30.32;;
36971;SDS011;40554;52.122;20.678;2022-12-18T10:48:54;79.27;;;31.10;;
36971;SDS011;40554;52.122;20.678;2022-12-18T10:53:52;112.25;;;41.33;;
36971;SDS011;40554;52.122;20.678;2022-12-18T10:56:22;209.15;;;71.55;;
36971;SDS011;40554;52.122;20.678;2022-12-18T10:58:41;86.70;;;32.73;;
36971;SDS011;40554;52.122;20.678;2022-12-18T11:06:06;71.75;;;27.42;;
36971;SDS011;40554;52.122;20.678;2022-12-18T11:08:25;70.00;;;29.72;;
36971;SDS011;40554;52.122;20.678;2022-12-18T11:10:42;70.85;;;29.12;;
36971;SDS011;40554;52.122;20.678;2022-12-18T11:13:17;61.18;;;24.55;;
36971;SDS011;40554;52.122;20.678;2022-12-18T11:15:37;69.35;;;27.45;;
36971;SDS011;40554;52.122;20.678;2022-12-18T11:17:55;65.00;;;26.80;;
36971;SDS011;40554;52.122;20.678;2022-12-18T11:22:58;88.30;;;37.90;;
36971;SDS011;40554;52.122;20.678;2022-12-18T11:27:35;75.47;;;32.88;;
36971;SDS011;40554;52.122;20.678;2022-12-18T11:29:51;77.97;;;31.57;;
36971;SDS011;40554;52.122;20.678;2022-12-18T11:34:59;102.60;;;41.20;;
36971;SDS011;40554;52.122;20.678;2022-12-18T11:37:31;92.02;;;38.63;;
36971;SDS011;40554;52.122;20.678;2022-12-18T11:39:53;125.05;;;49.65;;
36971;SDS011;40554;52.122;20.678;2022-12-18T11:42:20;157.05;;;63.13;;
36971;SDS011;40554;52.122;20.678;2022-12-18T11:44:54;118.70;;;51.15;;
36971;SDS011;40554;52.122;20.678;2022-12-18T11:49:52;71.82;;;29.98;;
36971;SDS011;40554;52.122;20.678;2022-12-18T11:52:19;69.72;;;29.85;;
36971;SDS011;40554;52.122;20.678;2022-12-18T11:54:42;70.95;;;29.50;;
36971;SDS011;40554;52.122;20.678;2022-12-18T11:57:02;79.47;;;30.82;;
36971;SDS011;40554;52.122;20.678;2022-12-18T12:05:14;88.17;;;37.98;;
36971;SDS011;40554;52.122;20.678;2022-12-18T12:07:44;78.52;;;33.80;;
36971;SDS011;40554;52.122;20.678;2022-12-18T12:13:25;80.40;;;33.13;;
36971;SDS011;40554;52.122;20.678;2022-12-18T12:18:41;79.27;;;32.33;;
36971;SDS011;40554;52.122;20.678;2022-12-18T12:21:13;77.20;;;32.30;;
36971;SDS011;40554;52.122;20.678;2022-12-18T12:23:38;78.55;;;35.17;;
36971;SDS011;40554;52.122;20.678;2022-12-18T12:28:57;84.85;;;33.60;;
36971;SDS011;40554;52.122;20.678;2022-12-18T12:34:16;79.27;;;31.95;;
36971;SDS011;40554;52.122;20.678;2022-12-18T12:36:47;79.15;;;33.55;;
36971;SDS011;40554;52.122;20.678;2022-12-18T12:39:20;76.17;;;31.77;;
36971;SDS011;40554;52.122;20.678;2022-12-18T12:41:43;89.77;;;35.03;;
36971;SDS011;40554;52.122;20.678;2022-12-18T12:44:24;90.95;;;35.75;;
36971;SDS011;40554;52.122;20.678;2022-12-18T12:46:45;86.00;;;36.08;;
36971;SDS011;40554;52.122;20.678;2022-12-18T12:49:09;82.12;;;33.65;;
36971;SDS011;40554;52.122;20.678;2022-12-18T12:51:34;75.83;;;33.78;;
36971;SDS011;40554;52.122;20.678;2022-12-18T12:53:54;75.72;;;33.25;;
36971;SDS011;40554;52.122;20.678;2022-12-18T12:56:14;75.22;;;32.28;;
36971;SDS011;40554;52.122;20.678;2022-12-18T12:58:55;75.92;;;32.58;;
36971;SDS011;40554;52.122;20.678;2022-12-18T13:01:23;74.00;;;32.58;;
36971;SDS011;40554;52.122;20.678;2022-12-18T13:09:16;71.50;;;30.88;;
36971;SDS011;40554;52.122;20.678;2022-12-18T13:11:39;80.53;;;32.17;;
36971;SDS011;40554;52.122;20.678;2022-12-18T13:14:23;70.45;;;31.40;;
36971;SDS011;40554;52.122;20.678;2022-12-18T13:16:46;77.40;;;29.35;;
36971;SDS011;40554;52.122;20.678;2022-12-18T13:19:02;72.15;;;30.52;;
36971;SDS011;40554;52.122;20.678;2022-12-18T13:21:24;88.85;;;34.50;;
36971;SDS011;40554;52.122;20.678;2022-12-18T13:23:45;84.77;;;34.75;;
36971;SDS011;40554;52.122;20.678;2022-12-18T13:31:06;75.20;;;34.18;;
36971;SDS011;40554;52.122;20.678;2022-12-18T13:45:42;119.15;;;48.73;;
36971;SDS011;40554;52.122;20.678;2022-12-18T13:48:21;104.95;;;44.58;;
36971;SDS011;40554;52.122;20.678;2022-12-18T13:50:39;96.67;;;39.10;;
36971;SDS011;40554;52.122;20.678;2022-12-18T13:52:55;82.22;;;35.35;;
36971;SDS011;40554;52.122;20.678;2022-12-18T13:55:17;132.20;;;52.75;;
36971;SDS011;40554;52.122;20.678;2022-12-18T13:57:36;135.03;;;47.38;;
36971;SDS011;40554;52.122;20.678;2022-12-18T13:59:56;149.65;;;58.63;;
36971;SDS011;40554;52.122;20.678;2022-12-18T14:02:15;83.17;;;34.98;;
36971;SDS011;40554;52.122;20.678;2022-12-18T14:06:10;71.87;;;29.67;;
36971;SDS011;40554;52.122;20.678;2022-12-18T14:08:32;58.75;;;24.82;;
36971;SDS011;40554;52.122;20.678;2022-12-18T14:10:49;69.60;;;27.90;;
36971;SDS011;40554;52.122;20.678;2022-12-18T14:13:08;66.17;;;28.27;;
36971;SDS011;40554;52.122;20.678;2022-12-18T14:15:32;74.55;;;31.48;;
36971;SDS011;40554;52.122;20.678;2022-12-18T14:20:18;67.92;;;27.80;;
36971;SDS011;40554;52.122;20.678;2022-12-18T14:22:35;69.12;;;29.42;;
36971;SDS011;40554;52.122;20.678;2022-12-18T14:25:04;76.10;;;32.13;;
36971;SDS011;40554;52.122;20.678;2022-12-18T14:27:31;71.92;;;32.42;;
36971;SDS011;40554;52.122;20.678;2022-12-18T14:29:49;74.55;;;31.12;;
36971;SDS011;40554;52.122;20.678;2022-12-18T14:32:10;74.82;;;30.62;;
36971;SDS011;40554;52.122;20.678;2022-12-18T14:34:32;76.75;;;32.83;;
36971;SDS011;40554;52.122;20.678;2022-12-18T14:36:52;76.92;;;33.70;;
36971;SDS011;40554;52.122;20.678;2022-12-18T14:39:12;76.40;;;33.10;;
36971;SDS011;40554;52.122;20.678;2022-12-18T14:41:32;83.55;;;33.65;;
36971;SDS011;40554;52.122;20.678;2022-12-18T14:43:49;80.67;;;33.85;;
36971;SDS011;40554;52.122;20.678;2022-12-18T14:48:50;92.05;;;38.90;;
36971;SDS011;40554;52.122;20.678;2022-12-18T14:51:17;88.10;;;37.25;;
36971;SDS011;40554;52.122;20.678;2022-12-18T14:53:40;123.42;;;50.25;;
36971;SDS011;40554;52.122;20.678;2022-12-18T14:56:00;116.47;;;48.10;;
36971;SDS011;40554;52.122;20.678;2022-12-18T14:58:18;109.50;;;46.35;;
36971;SDS011;40554;52.122;20.678;2022-12-18T15:00:35;138.55;;;56.13;;
36971;SDS011;40554;52.122;20.678;2022-12-18T15:02:56;97.20;;;41.00;;
36971;SDS011;40554;52.122;20.678;2022-12-18T15:12:36;73.47;;;33.67;;
36971;SDS011;40554;52.122;20.678;2022-12-18T15:14:56;78.92;;;33.35;;